createdAt,value
2019-01-19T00:00:08.130Z,6.10
2019-01-19T00:03:08.002Z,5.90
2019-01-19T00:05:48.231Z,5.47
2019-01-19T00:08:45.179Z,6.80
2019-01-19T00:11:52.238Z,7.80
2019-01-19T00:14:31.888Z,6.45
2019-01-19T00:17:52.902Z,7.62
2019-01-19T00:20:52.110Z,9.18
2019-01-19T00:24:08.499Z,7.80
2019-01-19T00:27:08.938Z,6.97
2019-01-19T00:30:07.031Z,8.50
2019-01-19T00:33:11.007Z,9.48
2019-01-19T00:36:46.605Z,7.22
2019-01-19T00:39:52.638Z,8.80
2019-01-19T00:42:59.364Z,10.82
2019-01-19T00:45:55.644Z,7.90
2019-01-19T00:49:16.920Z,9.38
2019-01-19T00:52:18.449Z,8.50
2019-01-19T00:55:02.579Z,10.98
2019-01-19T00:58:08.750Z,10.43
2019-01-19T01:01:11.952Z,7.10
2019-01-19T01:04:35.225Z,8.45
2019-01-19T01:07:20.702Z,8.13
2019-01-19T01:10:19.561Z,8.18
2019-01-19T01:13:33.541Z,7.75
2019-01-19T01:16:41.672Z,9.93
2019-01-19T01:19:31.711Z,6.75
2019-01-19T01:22:08.698Z,6.50
2019-01-19T01:24:49.945Z,7.58
2019-01-19T01:27:43.530Z,9.13
2019-01-19T01:30:34.113Z,10.05
2019-01-19T01:33:59.179Z,8.10
2019-01-19T01:36:56.930Z,9.65
2019-01-19T01:39:58.451Z,10.85
2019-01-19T01:42:54.489Z,10.63
2019-01-19T01:46:08.573Z,7.17
2019-01-19T01:49:18.360Z,8.30
2019-01-19T01:52:25.280Z,8.63
2019-01-19T01:55:00.095Z,8.28
2019-01-19T01:57:35.297Z,9.23
2019-01-19T02:00:27.478Z,9.93
2019-01-19T02:03:14.390Z,9.10
2019-01-19T02:06:03.674Z,9.83
2019-01-19T02:09:02.626Z,10.35
2019-01-19T02:11:43.537Z,8.38
2019-01-19T02:14:42.304Z,9.45
2019-01-19T02:17:52.044Z,9.25
2019-01-19T02:20:47.216Z,6.15
2019-01-19T02:23:26.048Z,7.08
2019-01-19T02:26:39.915Z,7.60
2019-01-19T02:29:40.779Z,10.63
2019-01-19T02:32:37.018Z,8.30
2019-01-19T02:35:29.767Z,7.22
2019-01-19T02:38:35.542Z,8.70
2019-01-19T02:41:57.043Z,6.62
2019-01-19T02:45:03.089Z,7.22
2019-01-19T02:48:02.760Z,7.53
2019-01-19T02:50:53.276Z,8.30
2019-01-19T02:53:52.651Z,9.70
2019-01-19T02:57:11.924Z,7.33
2019-01-19T03:00:07.963Z,8.45
2019-01-19T03:02:55.764Z,10.15
2019-01-19T03:05:57.778Z,7.80
2019-01-19T03:08:51.590Z,7.25
2019-01-19T03:11:43.968Z,10.53
2019-01-19T03:14:42.174Z,11.08
2019-01-19T03:17:41.276Z,10.85
2019-01-19T03:20:44.551Z,10.25
2019-01-19T03:23:36.362Z,9.50
2019-01-19T03:26:21.717Z,8.28
2019-01-19T03:29:34.449Z,6.92
2019-01-19T03:32:31.577Z,10.53
2019-01-19T03:35:37.695Z,9.05
2019-01-19T03:38:33.341Z,8.28
2019-01-19T03:41:29.933Z,8.50
2019-01-19T03:44:20.112Z,11.73
2019-01-19T03:47:27.164Z,13.05
2019-01-19T03:50:47.286Z,12.05
2019-01-19T03:53:43.995Z,10.60
2019-01-19T03:56:30.153Z,11.40
2019-01-19T03:59:38.475Z,12.63
2019-01-19T04:02:48.562Z,13.40
2019-01-19T04:05:40.949Z,10.68
2019-01-19T04:08:42.257Z,9.03
2019-01-19T04:11:46.816Z,12.25
2019-01-19T04:14:54.784Z,9.73
2019-01-19T04:17:53.244Z,10.05
2019-01-19T04:21:09.366Z,9.93
2019-01-19T04:23:41.622Z,8.88
2019-01-19T04:26:20.654Z,12.35
2019-01-19T04:28:50.574Z,11.73
2019-01-19T04:31:23.060Z,9.98
2019-01-19T04:33:53.060Z,8.65
2019-01-19T04:36:22.696Z,7.47
2019-01-19T04:38:52.486Z,7.67
2019-01-19T04:41:22.109Z,10.53
2019-01-19T04:43:51.758Z,9.85
2019-01-19T04:46:21.476Z,11.38
2019-01-19T04:48:51.368Z,8.73
2019-01-19T04:51:20.991Z,7.95
2019-01-19T04:53:50.629Z,10.00
2019-01-19T04:56:22.979Z,6.10
2019-01-19T04:58:52.605Z,8.40
2019-01-19T05:01:22.251Z,7.50
2019-01-19T05:03:51.885Z,7.55
2019-01-19T05:06:30.244Z,9.75
2019-01-19T05:08:54.596Z,8.38
2019-01-19T05:11:24.242Z,9.20
2019-01-19T05:13:53.861Z,8.75
2019-01-19T05:16:25.334Z,9.83
2019-01-19T05:18:54.973Z,7.30
2019-01-19T05:21:24.774Z,5.20
2019-01-19T05:23:54.669Z,6.60
2019-01-19T05:26:24.288Z,7.80
2019-01-19T05:28:55.869Z,5.90
2019-01-19T05:31:27.181Z,9.05
2019-01-19T05:33:56.799Z,8.48
2019-01-19T05:36:26.420Z,6.78
2019-01-19T05:38:56.129Z,9.70
2019-01-19T05:41:25.759Z,4.97
2019-01-19T05:43:55.404Z,6.65
2019-01-19T05:46:25.058Z,7.17
2019-01-19T05:48:54.694Z,5.65
2019-01-19T05:51:29.533Z,7.22
2019-01-19T05:53:59.177Z,5.28
2019-01-19T05:56:28.791Z,7.55
2019-01-19T05:58:58.434Z,9.25
2019-01-19T06:01:28.342Z,9.65
2019-01-19T06:03:57.965Z,6.55
2019-01-19T06:06:27.871Z,6.35
2019-01-19T06:08:57.657Z,7.00
2019-01-19T06:11:27.300Z,7.45
2019-01-19T06:13:56.972Z,7.05
2019-01-19T06:16:26.610Z,7.42
2019-01-19T06:18:56.510Z,9.10
2019-01-19T06:21:31.938Z,11.30
2019-01-19T06:24:01.571Z,11.75
2019-01-19T06:26:31.256Z,8.13
2019-01-19T06:29:00.891Z,8.33
2019-01-19T06:31:30.542Z,8.83
2019-01-19T06:34:00.246Z,7.15
2019-01-19T06:36:29.876Z,7.78
2019-01-19T06:38:59.557Z,6.78
2019-01-19T06:41:29.288Z,8.13
2019-01-19T06:44:01.696Z,8.35
2019-01-19T06:46:31.412Z,7.62
2019-01-19T06:49:01.050Z,7.03
2019-01-19T06:51:30.673Z,8.75
2019-01-19T06:54:06.000Z,9.38
2019-01-19T06:56:36.774Z,8.45
2019-01-19T06:59:06.476Z,9.15
2019-01-19T07:01:37.732Z,10.80
2019-01-19T07:04:07.383Z,9.20
2019-01-19T07:06:38.220Z,7.15
2019-01-19T07:09:08.428Z,9.43
2019-01-19T07:11:38.144Z,5.87
2019-01-19T07:14:07.780Z,6.08
2019-01-19T07:16:37.414Z,7.05
2019-01-19T07:19:07.049Z,6.78
2019-01-19T07:21:37.757Z,7.08
2019-01-19T07:24:07.434Z,6.47
2019-01-19T07:26:37.071Z,7.87
2019-01-19T07:29:06.728Z,6.67
2019-01-19T07:31:36.372Z,6.90
2019-01-19T07:34:06.036Z,7.15
2019-01-19T07:36:35.676Z,6.22
2019-01-19T07:39:07.882Z,7.58
2019-01-19T07:41:42.780Z,7.10
2019-01-19T07:44:15.313Z,5.20
2019-01-19T07:46:45.104Z,6.03
2019-01-19T07:49:14.737Z,6.25
2019-01-19T07:51:44.495Z,7.33
2019-01-19T07:54:14.134Z,7.72
2019-01-19T07:56:46.023Z,6.37
2019-01-19T07:59:15.649Z,7.00
2019-01-19T08:01:45.290Z,6.72
2019-01-19T08:04:14.948Z,6.70
2019-01-19T08:06:44.580Z,7.67
2019-01-19T08:09:14.234Z,5.12
2019-01-19T08:11:43.936Z,7.17
2019-01-19T08:14:13.559Z,6.22
2019-01-19T08:16:47.183Z,7.28
2019-01-19T08:19:18.608Z,5.45
2019-01-19T08:21:51.332Z,6.87
2019-01-19T08:24:21.036Z,4.75
2019-01-19T08:26:52.753Z,6.45
2019-01-19T08:29:23.044Z,6.03
2019-01-19T08:31:52.704Z,7.15
2019-01-19T08:34:23.908Z,7.35
2019-01-19T08:36:53.615Z,6.45
2019-01-19T08:39:23.236Z,5.42
2019-01-19T08:41:52.958Z,8.03
2019-01-19T08:44:22.666Z,7.00
2019-01-19T08:46:52.297Z,6.90
2019-01-19T08:49:23.575Z,4.58
2019-01-19T08:51:55.560Z,5.42
2019-01-19T08:54:25.190Z,6.20
2019-01-19T08:57:00.008Z,5.40
2019-01-19T08:59:30.263Z,5.97
2019-01-19T09:01:59.983Z,7.95
2019-01-19T09:04:29.634Z,5.95
2019-01-19T09:07:02.160Z,5.45
2019-01-19T09:09:31.784Z,5.40
2019-01-19T09:12:01.654Z,5.65
2019-01-19T09:14:31.310Z,5.15
2019-01-19T09:17:00.935Z,4.28
2019-01-19T09:19:30.570Z,6.08
2019-01-19T09:22:02.498Z,4.90
2019-01-19T09:24:33.259Z,5.90
2019-01-19T09:27:02.904Z,4.62
2019-01-19T09:29:32.596Z,6.22
2019-01-19T09:32:02.392Z,6.03
2019-01-19T09:34:34.007Z,5.30
2019-01-19T09:37:03.430Z,5.85
2019-01-19T09:39:33.044Z,5.15
2019-01-19T09:42:05.208Z,5.05
2019-01-19T09:44:36.021Z,5.50
2019-01-19T09:47:05.716Z,7.12
2019-01-19T09:49:35.427Z,5.17
2019-01-19T09:52:10.303Z,6.12
2019-01-19T09:54:40.024Z,5.97
2019-01-19T09:57:09.658Z,5.40
2019-01-19T09:59:45.503Z,6.00
2019-01-19T10:02:15.222Z,6.22
2019-01-19T10:04:45.015Z,6.08
2019-01-19T10:07:14.654Z,4.45
2019-01-19T10:09:44.273Z,5.95
2019-01-19T10:12:13.926Z,7.15
2019-01-19T10:14:43.585Z,5.47
2019-01-19T10:17:15.595Z,4.03
2019-01-19T10:19:47.100Z,3.22
2019-01-19T10:22:16.716Z,3.75
2019-01-19T10:24:46.332Z,4.50
2019-01-19T10:27:16.016Z,4.10
2019-01-19T10:29:47.437Z,3.05
2019-01-19T10:32:17.072Z,4.20
2019-01-19T10:34:46.823Z,4.20
2019-01-19T10:37:16.450Z,4.03
2019-01-19T10:39:47.352Z,4.15
2019-01-19T10:42:16.955Z,3.30
2019-01-19T10:44:46.586Z,5.20
2019-01-19T10:47:16.215Z,3.05
2019-01-19T10:49:45.841Z,4.72
2019-01-19T10:52:15.463Z,4.10
2019-01-19T10:54:47.625Z,4.03
2019-01-19T10:57:17.259Z,2.60
2019-01-19T10:59:46.885Z,2.90
2019-01-19T11:02:16.612Z,2.15
2019-01-19T11:04:50.685Z,4.08
2019-01-19T11:07:23.072Z,3.75
2019-01-19T11:09:52.707Z,2.75
2019-01-19T11:12:22.332Z,3.30
2019-01-19T11:14:51.974Z,3.20
2019-01-19T11:17:21.619Z,3.80
2019-01-19T11:19:51.257Z,3.40
2019-01-19T11:22:21.142Z,5.00
2019-01-19T11:24:50.796Z,2.70
2019-01-19T11:27:20.420Z,3.62
2019-01-19T11:29:52.557Z,3.08
2019-01-19T11:32:22.304Z,2.90
2019-01-19T11:34:51.938Z,3.42
2019-01-19T11:37:21.548Z,2.95
2019-01-19T11:39:51.170Z,2.52
2019-01-19T11:42:20.796Z,2.45
2019-01-19T11:44:51.355Z,2.33
2019-01-19T11:47:21.145Z,3.50
2019-01-19T11:49:50.744Z,3.17
2019-01-19T11:52:21.344Z,3.10
2019-01-19T11:54:51.054Z,3.70
2019-01-19T11:57:20.712Z,3.98
2019-01-19T11:59:51.436Z,2.95
2019-01-19T12:02:21.108Z,3.52
2019-01-19T12:04:52.862Z,2.83
2019-01-19T12:07:28.677Z,2.70
2019-01-19T12:10:00.789Z,2.72
2019-01-19T12:12:30.436Z,3.12
2019-01-19T12:15:00.255Z,2.62
2019-01-19T12:17:30.030Z,3.25
2019-01-19T12:19:59.653Z,2.20
2019-01-19T12:22:29.320Z,2.95
2019-01-19T12:24:58.950Z,2.95
2019-01-19T12:27:28.569Z,2.83
2019-01-19T12:29:58.190Z,2.60
2019-01-19T12:32:28.600Z,3.75
2019-01-19T12:35:00.533Z,3.67
2019-01-19T12:37:30.169Z,3.95
2019-01-19T12:39:59.799Z,4.03
2019-01-19T12:42:29.465Z,2.45
2019-01-19T12:44:59.100Z,3.98
2019-01-19T12:47:33.262Z,2.20
2019-01-19T12:50:02.986Z,2.67
2019-01-19T12:52:32.688Z,2.95
2019-01-19T12:55:02.328Z,2.10
2019-01-19T12:57:31.945Z,3.30
2019-01-19T13:00:01.570Z,2.42
2019-01-19T13:02:31.210Z,2.90
2019-01-19T13:05:00.834Z,3.05
2019-01-19T13:07:30.542Z,2.50
2019-01-19T13:10:14.935Z,3.47
2019-01-19T13:12:54.145Z,2.33
2019-01-19T13:16:15.856Z,2.47
2019-01-19T13:18:54.087Z,3.37
2019-01-19T13:22:01.082Z,2.75
2019-01-19T13:25:01.609Z,3.60
2019-01-19T13:28:12.676Z,4.08
2019-01-19T13:31:09.421Z,2.90
2019-01-19T13:34:02.329Z,3.22
2019-01-19T13:37:06.930Z,2.98
2019-01-19T13:40:04.152Z,2.77
2019-01-19T13:42:58.184Z,2.87
2019-01-19T13:46:14.564Z,3.10
2019-01-19T13:49:22.282Z,3.00
2019-01-19T13:52:19.758Z,2.83
2019-01-19T13:55:34.130Z,3.67
2019-01-19T13:58:28.881Z,3.47
2019-01-19T14:01:22.020Z,3.35
2019-01-19T14:04:01.368Z,3.15
2019-01-19T14:07:21.608Z,2.85
2019-01-19T14:10:12.568Z,2.92
2019-01-19T14:13:07.694Z,2.98
2019-01-19T14:16:01.490Z,2.72
2019-01-19T14:18:49.092Z,2.85
2019-01-19T14:22:10.798Z,4.72
2019-01-19T14:24:58.328Z,2.15
2019-01-19T14:28:05.439Z,4.87
2019-01-19T14:31:07.260Z,3.27
2019-01-19T14:33:53.751Z,3.35
2019-01-19T14:37:07.043Z,2.87
2019-01-19T14:39:46.762Z,2.02
2019-01-19T14:42:47.658Z,3.25
2019-01-19T14:46:02.661Z,2.25
2019-01-19T14:49:07.552Z,3.22
2019-01-19T14:52:18.707Z,2.10
2019-01-19T14:55:37.410Z,2.40
2019-01-19T14:58:41.426Z,2.45
2019-01-19T15:01:43.054Z,2.02
2019-01-19T15:04:42.397Z,3.72
2019-01-19T15:07:48.793Z,2.42
2019-01-19T15:10:31.070Z,2.45
2019-01-19T15:13:32.872Z,2.17
2019-01-19T15:16:42.247Z,3.62
2019-01-19T15:19:54.213Z,2.20
2019-01-19T15:22:47.643Z,3.00
2019-01-19T15:25:58.822Z,2.98
2019-01-19T15:28:50.326Z,3.37
2019-01-19T15:31:56.706Z,2.27
2019-01-19T15:34:54.995Z,1.95
2019-01-19T15:37:37.824Z,2.35
2019-01-19T15:41:06.414Z,2.65
2019-01-19T15:43:45.865Z,3.40
2019-01-19T15:46:57.055Z,2.35
2019-01-19T15:50:32.026Z,2.67
2019-01-19T15:53:10.826Z,3.25
2019-01-19T15:56:06.292Z,2.33
2019-01-19T15:58:51.398Z,2.70
2019-01-19T16:01:41.048Z,2.47
2019-01-19T16:04:39.025Z,3.30
2019-01-19T16:07:53.644Z,3.42
2019-01-19T16:11:00.677Z,2.27
2019-01-19T16:14:02.830Z,2.60
2019-01-19T16:17:10.949Z,2.40
2019-01-19T16:20:14.516Z,3.02
2019-01-19T16:23:13.023Z,3.40
2019-01-19T16:25:54.916Z,3.62
2019-01-19T16:29:02.194Z,3.42
2019-01-19T16:32:15.752Z,3.47
2019-01-19T16:35:22.595Z,3.17
2019-01-19T16:38:12.940Z,3.25
2019-01-19T16:40:55.174Z,3.62
2019-01-19T16:43:52.151Z,3.55
2019-01-19T16:46:44.893Z,3.72
2019-01-19T16:49:36.134Z,2.70
2019-01-19T16:52:40.688Z,3.30
2019-01-19T16:55:19.430Z,2.83
2019-01-19T16:58:17.644Z,2.77
2019-01-19T17:01:17.864Z,3.22
2019-01-19T17:04:32.344Z,2.45
2019-01-19T17:07:34.509Z,3.00
2019-01-19T17:10:17.114Z,2.50
2019-01-19T17:13:23.497Z,3.25
2019-01-19T17:16:40.428Z,4.10
2019-01-19T17:19:24.120Z,4.30
2019-01-19T17:22:11.778Z,6.08
2019-01-19T17:25:18.898Z,5.65
2019-01-19T17:28:25.145Z,4.28
2019-01-19T17:31:26.113Z,6.12
2019-01-19T17:34:27.400Z,5.80
2019-01-19T17:37:28.266Z,4.62
2019-01-19T17:40:35.326Z,5.65
2019-01-19T17:43:50.242Z,5.40
2019-01-19T17:47:16.569Z,6.28
2019-01-19T17:50:06.166Z,4.62
2019-01-19T17:53:29.556Z,4.58
2019-01-19T17:56:33.258Z,6.62
2019-01-19T17:59:33.630Z,4.42
2019-01-19T18:02:42.689Z,3.92
2019-01-19T18:05:33.983Z,5.08
2019-01-19T18:08:39.146Z,5.50
2019-01-19T18:11:41.198Z,3.72
2019-01-19T18:14:41.520Z,4.42
2019-01-19T18:17:37.339Z,3.40
2019-01-19T18:20:41.842Z,4.97
2019-01-19T18:23:37.880Z,4.62
2019-01-19T18:27:16.622Z,3.27
2019-01-19T18:30:30.915Z,6.65
2019-01-19T18:33:41.344Z,4.40
2019-01-19T18:36:34.294Z,4.78
2019-01-19T18:39:25.920Z,5.20
2019-01-19T18:42:29.252Z,3.70
2019-01-19T18:45:32.729Z,6.30
2019-01-19T18:48:45.896Z,3.83
2019-01-19T18:51:45.312Z,3.85
2019-01-19T18:54:55.661Z,4.35
2019-01-19T18:57:51.736Z,4.05
2019-01-19T19:01:08.916Z,6.33
2019-01-19T19:04:31.049Z,4.67
2019-01-19T19:07:23.542Z,3.40
2019-01-19T19:10:20.173Z,4.95
2019-01-19T19:13:34.537Z,4.45
2019-01-19T19:16:31.708Z,2.27
2019-01-19T19:19:38.328Z,4.87
2019-01-19T19:22:24.848Z,3.00
2019-01-19T19:25:26.918Z,4.45
2019-01-19T19:28:13.026Z,4.10
2019-01-19T19:31:30.550Z,3.95
2019-01-19T19:34:30.054Z,5.10
2019-01-19T19:37:09.149Z,3.40
2019-01-19T19:39:58.718Z,3.45
2019-01-19T19:42:56.667Z,3.55
2019-01-19T19:46:11.902Z,3.02
2019-01-19T19:49:27.970Z,3.35
2019-01-19T19:52:01.781Z,4.53
2019-01-19T19:54:33.249Z,3.87
2019-01-19T19:57:03.020Z,3.80
2019-01-19T19:59:32.736Z,3.25
2019-01-19T20:02:04.820Z,3.37
2019-01-19T20:04:35.730Z,3.98
2019-01-19T20:07:09.472Z,2.75
2019-01-19T20:09:40.862Z,4.33
2019-01-19T20:12:10.660Z,3.83
2019-01-19T20:14:42.224Z,3.35
2019-01-19T20:17:12.807Z,2.47
2019-01-19T20:19:42.469Z,5.53
2019-01-19T20:22:15.530Z,3.10
2019-01-19T20:24:47.955Z,3.80
2019-01-19T20:27:17.572Z,3.47
2019-01-19T20:29:49.123Z,4.25
2019-01-19T20:32:19.398Z,3.20
2019-01-19T20:34:49.016Z,2.95
2019-01-19T20:37:23.158Z,3.70
2019-01-19T20:39:55.458Z,4.28
2019-01-19T20:42:25.089Z,3.45
2019-01-19T20:44:54.721Z,3.37
2019-01-19T20:47:24.353Z,4.70
2019-01-19T20:49:57.679Z,2.60
2019-01-19T20:52:27.281Z,2.67
2019-01-19T20:54:56.903Z,2.85
2019-01-19T20:57:26.602Z,2.30
2019-01-19T20:59:56.308Z,2.12
2019-01-19T21:02:25.920Z,3.33
2019-01-19T21:04:55.559Z,4.17
2019-01-19T21:07:27.764Z,2.90
2019-01-19T21:10:00.546Z,2.37
2019-01-19T21:12:32.457Z,3.55
2019-01-19T21:15:05.066Z,3.17
2019-01-19T21:17:34.699Z,2.90
2019-01-19T21:20:05.820Z,2.25
2019-01-19T21:22:35.444Z,2.87
2019-01-19T21:25:06.761Z,3.42
2019-01-19T21:27:36.400Z,2.45
2019-01-19T21:30:11.589Z,2.87
2019-01-19T21:32:41.356Z,2.50
2019-01-19T21:35:11.138Z,4.25
2019-01-19T21:37:40.860Z,4.50
2019-01-19T21:40:12.098Z,2.95
2019-01-19T21:42:42.851Z,2.70
2019-01-19T21:45:17.079Z,3.60
2019-01-19T21:47:46.725Z,3.65
2019-01-19T21:50:19.083Z,2.17
2019-01-19T21:52:52.608Z,3.33
2019-01-19T21:55:22.255Z,3.02
2019-01-19T21:57:51.886Z,2.75
2019-01-19T22:00:24.060Z,3.67
2019-01-19T22:02:53.667Z,3.58
2019-01-19T22:05:25.728Z,3.40
2019-01-19T22:07:55.352Z,2.37
2019-01-19T22:10:27.291Z,3.65
2019-01-19T22:12:57.374Z,2.35
2019-01-19T22:15:27.078Z,3.60
2019-01-19T22:17:56.704Z,3.42
2019-01-19T22:20:26.426Z,2.83
2019-01-19T22:23:01.688Z,3.00
2019-01-19T22:25:31.304Z,4.55
2019-01-19T22:28:00.961Z,3.20
2019-01-19T22:30:30.689Z,3.42
2019-01-19T22:33:00.589Z,2.95
2019-01-19T22:35:30.758Z,3.27
2019-01-19T22:38:00.413Z,2.45
2019-01-19T22:40:30.122Z,3.92
2019-01-19T22:43:04.898Z,2.85
2019-01-19T22:45:41.860Z,3.12
2019-01-19T22:48:12.519Z,4.00
2019-01-19T22:50:42.208Z,2.70
2019-01-19T22:53:11.844Z,3.05
2019-01-19T22:55:41.490Z,3.90
2019-01-19T22:58:11.190Z,3.55
2019-01-19T23:01:08.609Z,3.80
2019-01-19T23:03:39.337Z,3.40
2019-01-19T23:06:09.196Z,3.60
2019-01-19T23:08:39.042Z,3.12
2019-01-19T23:11:14.415Z,1.90
2019-01-19T23:13:44.105Z,3.85
2019-01-19T23:16:13.796Z,1.98
2019-01-19T23:18:43.408Z,2.58
2019-01-19T23:21:13.179Z,2.58
2019-01-19T23:23:45.128Z,3.25
2019-01-19T23:26:14.931Z,3.75
2019-01-19T23:28:44.654Z,2.20
2019-01-19T23:31:14.369Z,2.90
2019-01-19T23:33:46.970Z,3.02
2019-01-19T23:36:16.666Z,1.90
2019-01-19T23:38:46.486Z,3.58
2019-01-19T23:41:16.124Z,2.52
2019-01-19T23:43:45.757Z,4.75
2019-01-19T23:46:18.401Z,3.08
2019-01-19T23:48:48.086Z,2.50
2019-01-19T23:51:19.060Z,3.50
2019-01-19T23:53:48.725Z,4.28
2019-01-19T23:56:18.412Z,3.33
2019-01-19T23:58:48.037Z,4.42
